Time;durP1;ratioP1;P1;durP2;ratioP2;P2;SDS_P1;SDS_P2;PMS_P1;PMS_P2;Temp;Humidity;BMP_temperature;BMP_pressure;BME280_temperature;BME280_humidity;BME280_pressure;Samples;Min_cycle;Max_cycle;Signal;HPM_P1;HPM_P2
2022/04/22 00:00:40;;;;;;;15.55;14.23;;;;;;;;;;5038867;28;20037;-72
2022/04/22 00:03:06;;;;;;;15.88;14.60;;;;;;;;;;5045183;28;20969;-72
2022/04/22 00:05:33;;;;;;;16.08;14.68;;;;;;;;;;5043483;28;20395;-72
2022/04/22 00:07:58;;;;;;;16.13;14.23;;;;;;;;;;5026700;28;20045;-71
2022/04/22 00:10:24;;;;;;;15.48;14.18;;;;;;;;;;5042388;28;20043;-71
2022/04/22 00:12:50;;;;;;;15.60;14.27;;;;;;;;;;5045274;28;20033;-72
2022/04/22 00:15:15;;;;;;;15.85;14.48;;;;;;;;;;5024872;28;20029;-72
2022/04/22 00:17:42;;;;;;;15.80;14.48;;;;;;;;;;5043851;28;20127;-72
2022/04/22 00:20:10;;;;;;;15.60;14.38;;;;;;;;;;5043202;28;20068;-71
2022/04/22 00:22:37;;;;;;;17.23;15.13;;;;;;;;;;5045682;28;20031;-71
2022/04/22 00:25:03;;;;;;;15.43;14.23;;;;;;;;;;5041276;28;20037;-71
2022/04/22 00:27:29;;;;;;;15.88;14.55;;;;;;;;;;5043441;28;20509;-71
2022/04/22 00:29:54;;;;;;;16.75;15.25;;;;;;;;;;5025460;28;20086;-71
2022/04/22 00:32:20;;;;;;;16.30;14.80;;;;;;;;;;5044333;28;20029;-71
2022/04/22 00:34:45;;;;;;;16.15;14.65;;;;;;;;;;5043867;28;20039;-71
2022/04/22 00:37:11;;;;;;;16.92;15.52;;;;;;;;;;5043517;28;20075;-71
2022/04/22 00:39:36;;;;;;;16.58;15.10;;;;;;;;;;5047905;28;20518;-71
2022/04/22 00:42:10;;;;;;;16.25;14.77;;;;;;;;;;5046849;28;20067;-71
2022/04/22 00:44:37;;;;;;;15.88;14.57;;;;;;;;;;5043194;28;20063;-72
2022/04/22 00:47:03;;;;;;;16.60;15.10;;;;;;;;;;5043035;28;20522;-71
2022/04/22 00:49:29;;;;;;;16.42;15.13;;;;;;;;;;5025957;28;20040;-72
2022/04/22 00:51:55;;;;;;;16.17;14.73;;;;;;;;;;5045891;28;20117;-72
2022/04/22 00:54:21;;;;;;;16.23;14.80;;;;;;;;;;5043831;28;20058;-72
2022/04/22 00:56:47;;;;;;;16.10;14.63;;;;;;;;;;5040718;28;20045;-72
2022/04/22 00:59:12;;;;;;;16.65;15.15;;;;;;;;;;5044423;28;20418;-71
2022/04/22 01:01:38;;;;;;;15.77;14.40;;;;;;;;;;5041744;28;20090;-71
2022/04/22 01:09:48;;;;;;;17.77;15.98;;;;;;;;;;5041205;28;20086;-72
2022/04/22 01:12:15;;;;;;;16.95;15.45;;;;;;;;;;5042967;28;20033;-72
2022/04/22 01:14:41;;;;;;;17.88;16.17;;;;;;;;;;5027715;28;20025;-72
2022/04/22 01:17:08;;;;;;;17.50;15.93;;;;;;;;;;5042865;28;20123;-71
2022/04/22 01:19:34;;;;;;;18.55;16.70;;;;;;;;;;5042143;28;20025;-72
2022/04/22 01:22:00;;;;;;;17.77;15.68;;;;;;;;;;5042534;28;20437;-72
2022/04/22 01:24:27;;;;;;;16.98;15.38;;;;;;;;;;5045577;28;20504;-72
2022/04/22 01:26:55;;;;;;;18.33;16.52;;;;;;;;;;5043158;28;20071;-72
2022/04/22 01:29:21;;;;;;;17.02;15.57;;;;;;;;;;5044885;28;20055;-72
2022/04/22 01:31:47;;;;;;;17.17;15.65;;;;;;;;;;5042724;28;20116;-72
2022/04/22 01:34:13;;;;;;;18.00;16.27;;;;;;;;;;5044737;28;20037;-72
2022/04/22 01:36:39;;;;;;;18.20;16.40;;;;;;;;;;5046072;28;20403;-72
2022/04/22 01:39:05;;;;;;;18.08;16.38;;;;;;;;;;5042628;28;20057;-72
2022/04/22 01:41:30;;;;;;;18.13;16.52;;;;;;;;;;5024636;28;20712;-72
2022/04/22 01:43:57;;;;;;;19.25;17.40;;;;;;;;;;5044212;28;20037;-72
2022/04/22 01:46:23;;;;;;;18.23;16.63;;;;;;;;;;5043687;28;20060;-72
2022/04/22 01:48:49;;;;;;;18.92;17.08;;;;;;;;;;5026404;28;20113;-72
2022/04/22 01:51:15;;;;;;;18.23;16.42;;;;;;;;;;5043188;28;20051;-72
2022/04/22 01:53:41;;;;;;;18.30;16.48;;;;;;;;;;5045864;28;20032;-72
2022/04/22 01:56:07;;;;;;;19.10;16.90;;;;;;;;;;5043333;28;20041;-72
2022/04/22 01:58:32;;;;;;;19.48;17.58;;;;;;;;;;5041587;28;20025;-72
2022/04/22 02:00:58;;;;;;;20.88;18.88;;;;;;;;;;5042801;28;20052;-72
2022/04/22 02:03:24;;;;;;;19.17;16.70;;;;;;;;;;5043413;28;20124;-72
2022/04/22 02:05:50;;;;;;;18.95;17.23;;;;;;;;;;5051164;28;20029;-73
2022/04/22 02:08:16;;;;;;;18.42;16.67;;;;;;;;;;5052602;28;20033;-72
2022/04/22 02:10:42;;;;;;;21.60;19.30;;;;;;;;;;5085870;22;20046;-65
2022/04/22 02:13:08;;;;;;;20.77;18.58;;;;;;;;;;5085917;28;20102;-64
2022/04/22 02:15:34;;;;;;;21.05;18.77;;;;;;;;;;5090950;28;20028;-64
2022/04/22 02:18:00;;;;;;;20.80;18.70;;;;;;;;;;5081179;28;20046;-65
2022/04/22 02:20:26;;;;;;;21.38;19.25;;;;;;;;;;5080496;28;20028;-65
2022/04/22 02:22:51;;;;;;;21.42;19.33;;;;;;;;;;5080346;28;20036;-63
2022/04/22 02:25:17;;;;;;;20.52;18.33;;;;;;;;;;5085837;28;20042;-65
2022/04/22 02:30:27;;;;;;;19.67;17.77;;;;;;;;;;5076287;28;20055;-65
2022/04/22 02:32:52;;;;;;;20.45;18.48;;;;;;;;;;5077092;28;20036;-63
2022/04/22 02:35:21;;;;;;;21.23;18.27;;;;;;;;;;5080172;28;20479;-65
2022/04/22 02:37:50;;;;;;;21.77;19.48;;;;;;;;;;5084001;28;20060;-65
2022/04/22 02:45:47;;;;;;;21.48;19.27;;;;;;;;;;5086668;28;20040;-65
2022/04/22 02:48:12;;;;;;;23.00;20.17;;;;;;;;;;5075062;28;20043;-64
2022/04/22 02:50:38;;;;;;;24.15;20.90;;;;;;;;;;5073666;28;20035;-65
2022/04/22 02:53:04;;;;;;;22.08;19.80;;;;;;;;;;5089336;28;20032;-66
2022/04/22 02:55:30;;;;;;;24.27;21.67;;;;;;;;;;5085425;28;20035;-65
2022/04/22 02:57:56;;;;;;;23.70;21.05;;;;;;;;;;5073052;28;20134;-64
2022/04/22 03:00:23;;;;;;;26.88;23.33;;;;;;;;;;5084893;28;20573;-65
2022/04/22 03:02:49;;;;;;;26.63;22.20;;;;;;;;;;5087991;28;20044;-64
2022/04/22 03:05:14;;;;;;;24.55;21.95;;;;;;;;;;5084225;28;20097;-65
2022/04/22 03:07:40;;;;;;;24.52;21.92;;;;;;;;;;5087476;28;20032;-65
2022/04/22 03:10:06;;;;;;;25.52;21.92;;;;;;;;;;5078587;28;20032;-64
2022/04/22 03:12:34;;;;;;;28.33;22.13;;;;;;;;;;5081548;28;20115;-64
2022/04/22 03:15:00;;;;;;;24.67;21.67;;;;;;;;;;5080064;28;20027;-65
2022/04/22 03:17:26;;;;;;;26.42;21.98;;;;;;;;;;5084942;28;20732;-66
2022/04/22 03:19:52;;;;;;;27.80;22.80;;;;;;;;;;5087203;28;20127;-66
2022/04/22 03:22:17;;;;;;;27.67;23.58;;;;;;;;;;5073405;28;20071;-65
2022/04/22 03:24:43;;;;;;;26.33;22.80;;;;;;;;;;5086507;28;20063;-65
2022/04/22 03:27:09;;;;;;;33.42;24.20;;;;;;;;;;5081814;28;20067;-65
2022/04/22 03:29:35;;;;;;;31.83;24.38;;;;;;;;;;5079546;28;20038;-65
2022/04/22 03:32:02;;;;;;;27.38;23.20;;;;;;;;;;5074224;28;20693;-65
2022/04/22 03:34:27;;;;;;;28.42;23.50;;;;;;;;;;5087489;28;20040;-65
2022/04/22 03:36:53;;;;;;;28.42;22.48;;;;;;;;;;5086930;28;20090;-65
2022/04/22 03:39:19;;;;;;;32.22;24.70;;;;;;;;;;5073441;28;20123;-64
2022/04/22 03:41:44;;;;;;;33.58;25.58;;;;;;;;;;5083363;28;20072;-64
2022/04/22 03:44:10;;;;;;;29.10;23.00;;;;;;;;;;5074727;28;20069;-65
2022/04/22 03:46:36;;;;;;;27.55;23.63;;;;;;;;;;5073393;28;20031;-66
2022/04/22 03:49:04;;;;;;;25.60;22.75;;;;;;;;;;5085635;28;20030;-65
2022/04/22 03:51:30;;;;;;;29.85;24.17;;;;;;;;;;5077700;28;20040;-65
2022/04/22 03:53:56;;;;;;;27.77;23.60;;;;;;;;;;5086948;28;20036;-66
2022/04/22 03:59:05;;;;;;;28.17;22.80;;;;;;;;;;5078269;28;20040;-65
2022/04/22 04:01:32;;;;;;;35.70;25.90;;;;;;;;;;5086142;28;20048;-64
2022/04/22 04:03:57;;;;;;;32.58;24.75;;;;;;;;;;5079719;28;20048;-65
2022/04/22 04:06:24;;;;;;;37.60;27.13;;;;;;;;;;5075426;28;20032;-64
2022/04/22 04:17:06;;;;;;;38.65;25.35;;;;;;;;;;5081795;28;20693;-65
2022/04/22 04:25:00;;;;;;;31.40;24.67;;;;;;;;;;5085717;28;20104;-64
2022/04/22 04:27:26;;;;;;;44.17;28.80;;;;;;;;;;5083720;28;20141;-65
2022/04/22 04:29:51;;;;;;;33.10;24.38;;;;;;;;;;5071996;28;20047;-65
2022/04/22 04:32:17;;;;;;;37.17;26.63;;;;;;;;;;5069207;28;20036;-65
2022/04/22 04:34:44;;;;;;;36.13;27.23;;;;;;;;;;5082462;28;20077;-63
2022/04/22 04:37:10;;;;;;;34.78;26.33;;;;;;;;;;5084182;28;20104;-64
2022/04/22 04:39:35;;;;;;;37.28;26.63;;;;;;;;;;5080007;28;20036;-66
2022/04/22 04:42:02;;;;;;;37.28;26.08;;;;;;;;;;5087067;28;20679;-64
2022/04/22 04:44:28;;;;;;;38.30;25.90;;;;;;;;;;5084640;28;20047;-65
2022/04/22 04:46:54;;;;;;;37.47;26.35;;;;;;;;;;5081736;28;20119;-65
2022/04/22 04:49:20;;;;;;;38.53;26.15;;;;;;;;;;5081464;28;20089;-64
2022/04/22 04:51:46;;;;;;;36.60;26.73;;;;;;;;;;5076146;28;20048;-66
2022/04/22 04:54:12;;;;;;;34.40;25.80;;;;;;;;;;5082361;28;20032;-65
2022/04/22 04:56:37;;;;;;;31.05;25.25;;;;;;;;;;5077990;28;20032;-64
2022/04/22 04:59:03;;;;;;;34.53;25.48;;;;;;;;;;5076841;28;20033;-65
2022/04/22 05:01:29;;;;;;;34.33;25.40;;;;;;;;;;5087515;28;20081;-65
2022/04/22 05:03:54;;;;;;;33.53;25.85;;;;;;;;;;5073657;28;20037;-65
2022/04/22 05:06:20;;;;;;;34.28;25.58;;;;;;;;;;5076516;28;20395;-64
2022/04/22 05:08:45;;;;;;;32.97;25.42;;;;;;;;;;5086531;28;20111;-66
2022/04/22 05:11:12;;;;;;;34.25;24.77;;;;;;;;;;5089298;28;20069;-63
2022/04/22 05:13:37;;;;;;;29.27;24.33;;;;;;;;;;5082269;28;20037;-64
2022/04/22 05:16:03;;;;;;;31.80;24.60;;;;;;;;;;5077604;28;20032;-65
2022/04/22 05:18:29;;;;;;;32.05;24.65;;;;;;;;;;5085964;28;20081;-66
2022/04/22 05:20:55;;;;;;;29.20;24.98;;;;;;;;;;5089675;28;20043;-66
2022/04/22 05:23:21;;;;;;;28.25;24.38;;;;;;;;;;5083073;28;20051;-65
2022/04/22 05:25:47;;;;;;;31.00;23.95;;;;;;;;;;5085159;28;20587;-65
2022/04/22 05:28:13;;;;;;;27.30;22.98;;;;;;;;;;5078961;28;20740;-65
2022/04/22 05:33:23;;;;;;;26.77;23.85;;;;;;;;;;5076796;28;20036;-65
2022/04/22 05:35:49;;;;;;;28.13;22.88;;;;;;;;;;5084148;28;20111;-65
2022/04/22 05:38:15;;;;;;;31.70;23.38;;;;;;;;;;5075461;28;20040;-65
2022/04/22 05:40:44;;;;;;;26.60;23.70;;;;;;;;;;5087436;28;20036;-65
2022/04/22 05:43:10;;;;;;;27.58;23.80;;;;;;;;;;5074694;28;20032;-66
2022/04/22 05:45:39;;;;;;;27.25;22.98;;;;;;;;;;5081257;28;20039;-66
2022/04/22 05:48:05;;;;;;;25.98;23.17;;;;;;;;;;5072575;28;20507;-65
2022/04/22 05:50:31;;;;;;;25.60;23.02;;;;;;;;;;5055103;28;20051;-66
2022/04/22 05:52:57;;;;;;;26.50;23.35;;;;;;;;;;5089930;28;20032;-65
2022/04/22 05:55:25;;;;;;;26.23;23.15;;;;;;;;;;5068154;28;20422;-65
2022/04/22 05:57:53;;;;;;;27.37;24.57;;;;;;;;;;5072272;28;20040;-65
2022/04/22 06:00:24;;;;;;;28.80;23.55;;;;;;;;;;5083387;28;20351;-65
2022/04/22 06:02:50;;;;;;;29.80;25.58;;;;;;;;;;5089123;28;20032;-65
2022/04/22 06:05:20;;;;;;;28.65;24.40;;;;;;;;;;5071847;28;20050;-64
2022/04/22 06:07:46;;;;;;;30.25;25.42;;;;;;;;;;5083495;28;20085;-63
2022/04/22 06:10:31;;;;;;;31.02;25.98;;;;;;;;;;5087945;28;20048;-66
2022/04/22 06:12:58;;;;;;;28.58;24.27;;;;;;;;;;5071894;28;20036;-66
2022/04/22 06:15:24;;;;;;;28.55;24.90;;;;;;;;;;5080653;28;20050;-65
2022/04/22 06:17:51;;;;;;;27.45;24.63;;;;;;;;;;5088191;28;20123;-66
2022/04/22 06:20:18;;;;;;;27.33;24.52;;;;;;;;;;5076723;28;20561;-65
2022/04/22 06:22:43;;;;;;;26.50;23.80;;;;;;;;;;5087978;28;20081;-66
2022/04/22 06:25:10;;;;;;;25.42;23.00;;;;;;;;;;5088722;28;20032;-65
2022/04/22 06:27:38;;;;;;;26.27;23.45;;;;;;;;;;5087903;28;20127;-65
2022/04/22 06:30:04;;;;;;;25.98;23.20;;;;;;;;;;5072904;28;20040;-65
2022/04/22 06:32:31;;;;;;;25.63;22.92;;;;;;;;;;5071066;28;20190;-65
2022/04/22 06:34:57;;;;;;;26.15;23.45;;;;;;;;;;5070361;28;20080;-65
2022/04/22 06:37:23;;;;;;;24.42;22.02;;;;;;;;;;5075542;28;20662;-66
2022/04/22 06:48:03;;;;;;;26.17;23.50;;;;;;;;;;5071644;28;20149;-66
2022/04/22 06:50:29;;;;;;;25.15;22.60;;;;;;;;;;5076208;28;20042;-66
2022/04/22 06:52:55;;;;;;;26.42;23.35;;;;;;;;;;5088360;28;20093;-66
2022/04/22 06:55:21;;;;;;;24.67;22.27;;;;;;;;;;5083888;28;20561;-66
2022/04/22 06:57:51;;;;;;;25.13;22.42;;;;;;;;;;5083283;28;20058;-66
2022/04/22 07:00:18;;;;;;;25.27;22.67;;;;;;;;;;5087014;28;20028;-66
2022/04/22 07:02:47;;;;;;;24.33;21.98;;;;;;;;;;5077801;28;20036;-65
2022/04/22 07:05:13;;;;;;;24.88;22.27;;;;;;;;;;5076938;28;20044;-66
2022/04/22 07:07:40;;;;;;;25.65;23.05;;;;;;;;;;5086897;28;20036;-65
2022/04/22 07:10:06;;;;;;;24.35;21.85;;;;;;;;;;5090881;28;20475;-66
2022/04/22 07:12:32;;;;;;;24.88;22.30;;;;;;;;;;5078587;28;20089;-65
2022/04/22 07:15:06;;;;;;;25.65;23.15;;;;;;;;;;5085759;28;20110;-66
2022/04/22 07:17:33;;;;;;;24.58;22.17;;;;;;;;;;5087845;28;20039;-66
2022/04/22 07:20:09;;;;;;;24.17;21.77;;;;;;;;;;5090851;28;20115;-65
2022/04/22 07:22:39;;;;;;;24.08;21.75;;;;;;;;;;5074376;28;20625;-66
2022/04/22 07:25:06;;;;;;;23.30;21.13;;;;;;;;;;5069547;28;20634;-66
2022/04/22 07:27:38;;;;;;;24.25;21.88;;;;;;;;;;5073302;28;20052;-66
2022/04/22 07:30:07;;;;;;;24.23;21.92;;;;;;;;;;5098629;28;20491;-66
2022/04/22 07:32:37;;;;;;;23.87;21.73;;;;;;;;;;5096966;28;20035;-66
2022/04/22 07:35:12;;;;;;;24.25;22.02;;;;;;;;;;5089827;28;20037;-65
2022/04/22 07:37:38;;;;;;;25.52;22.98;;;;;;;;;;5082817;28;20611;-67
2022/04/22 07:40:05;;;;;;;23.95;21.65;;;;;;;;;;5075546;28;20029;-66
2022/04/22 07:42:33;;;;;;;24.52;22.13;;;;;;;;;;5069443;28;20116;-66
2022/04/22 07:47:46;;;;;;;24.00;21.60;;;;;;;;;;5075062;28;20040;-66
2022/04/22 07:50:14;;;;;;;24.27;22.00;;;;;;;;;;5085089;28;20545;-66
2022/04/22 07:52:44;;;;;;;24.77;22.38;;;;;;;;;;5086568;28;20036;-66
2022/04/22 07:55:10;;;;;;;24.40;22.05;;;;;;;;;;5086856;28;20047;-66
2022/04/22 07:57:36;;;;;;;24.08;21.67;;;;;;;;;;5087536;28;20077;-66
2022/04/22 08:00:03;;;;;;;22.95;20.77;;;;;;;;;;5081205;28;20028;-66
2022/04/22 08:02:41;;;;;;;23.80;21.23;;;;;;;;;;5086194;28;20035;-66
2022/04/22 08:05:11;;;;;;;24.77;21.48;;;;;;;;;;5077050;28;20032;-66
2022/04/22 08:07:37;;;;;;;23.77;21.45;;;;;;;;;;5085970;28;20522;-67
2022/04/22 08:10:03;;;;;;;24.73;22.42;;;;;;;;;;5083002;28;20032;-66
2022/04/22 08:12:29;;;;;;;23.20;21.10;;;;;;;;;;5084571;28;20032;-67
2022/04/22 08:14:54;;;;;;;22.65;20.42;;;;;;;;;;5083558;28;20031;-66
2022/04/22 08:17:21;;;;;;;22.88;20.65;;;;;;;;;;5083495;28;20032;-66
2022/04/22 08:19:47;;;;;;;22.73;20.63;;;;;;;;;;5076339;28;20097;-66
2022/04/22 08:22:12;;;;;;;21.83;19.63;;;;;;;;;;5085140;28;20418;-66
2022/04/22 08:24:38;;;;;;;21.83;19.70;;;;;;;;;;5083838;28;20043;-66
2022/04/22 08:27:06;;;;;;;23.02;20.70;;;;;;;;;;5083333;28;20032;-67
2022/04/22 08:29:31;;;;;;;23.17;20.60;;;;;;;;;;5087005;28;20415;-67
2022/04/22 08:31:57;;;;;;;23.42;21.02;;;;;;;;;;5082833;28;20032;-66
2022/04/22 08:34:22;;;;;;;23.42;21.13;;;;;;;;;;5077041;28;20029;-66
2022/04/22 08:36:48;;;;;;;23.23;20.90;;;;;;;;;;5082892;28;20038;-66
2022/04/22 08:39:15;;;;;;;22.38;19.90;;;;;;;;;;5082299;28;20019;-67
2022/04/22 08:41:41;;;;;;;24.42;22.20;;;;;;;;;;5088355;28;20501;-66
2022/04/22 08:44:07;;;;;;;24.05;21.75;;;;;;;;;;5083341;28;20036;-66
2022/04/22 08:52:02;;;;;;;22.92;20.67;;;;;;;;;;5082750;28;20027;-66
2022/04/22 08:54:29;;;;;;;21.10;19.15;;;;;;;;;;5081613;28;20122;-66
2022/04/22 08:56:55;;;;;;;21.15;19.17;;;;;;;;;;5078076;28;20028;-66
2022/04/22 08:59:20;;;;;;;20.65;18.85;;;;;;;;;;5078022;28;20682;-66
2022/04/22 09:01:48;;;;;;;18.98;17.30;;;;;;;;;;5082826;28;20036;-66
2022/04/22 09:04:13;;;;;;;20.48;18.58;;;;;;;;;;5086329;28;20031;-67
2022/04/22 09:06:40;;;;;;;21.42;19.38;;;;;;;;;;5083517;28;20395;-67
2022/04/22 09:09:06;;;;;;;22.58;18.92;;;;;;;;;;5073304;28;20035;-67
2022/04/22 09:11:42;;;;;;;20.75;18.80;;;;;;;;;;5075390;28;20084;-67
2022/04/22 09:14:08;;;;;;;19.02;17.33;;;;;;;;;;5081741;28;20042;-67
2022/04/22 09:16:33;;;;;;;18.17;16.20;;;;;;;;;;5083090;28;20462;-67
2022/04/22 09:19:01;;;;;;;18.38;16.88;;;;;;;;;;5066999;28;20038;-67
2022/04/22 09:21:27;;;;;;;18.92;17.25;;;;;;;;;;5081162;28;20039;-67
2022/04/22 09:23:53;;;;;;;18.13;16.40;;;;;;;;;;5086884;28;20035;-67
2022/04/22 09:26:24;;;;;;;18.15;16.65;;;;;;;;;;5081411;28;20048;-67
2022/04/22 09:29:00;;;;;;;18.08;16.45;;;;;;;;;;5088173;28;20090;-67
2022/04/22 09:31:27;;;;;;;18.17;16.55;;;;;;;;;;5082091;28;20625;-67
2022/04/22 09:33:53;;;;;;;19.35;17.65;;;;;;;;;;5073990;28;20063;-66
2022/04/22 09:45:04;;;;;;;17.85;16.17;;;;;;;;;;5081198;28;20139;-66
2022/04/22 09:47:32;;;;;;;16.92;15.52;;;;;;;;;;5083808;28;20058;-66
2022/04/22 09:49:59;;;;;;;16.57;15.07;;;;;;;;;;5084169;28;20031;-66
2022/04/22 09:52:26;;;;;;;16.80;15.10;;;;;;;;;;5087535;28;20101;-66
2022/04/22 09:55:09;;;;;;;16.45;15.05;;;;;;;;;;5081027;28;20114;-67
2022/04/22 09:57:55;;;;;;;16.42;15.13;;;;;;;;;;5083106;28;20037;-66
2022/04/22 10:00:26;;;;;;;17.08;15.68;;;;;;;;;;5072306;28;20116;-66
2022/04/22 10:02:53;;;;;;;18.25;16.75;;;;;;;;;;5085390;28;20151;-67
2022/04/22 10:05:27;;;;;;;18.13;16.50;;;;;;;;;;5079756;28;20024;-66
2022/04/22 10:07:57;;;;;;;17.88;16.33;;;;;;;;;;5076042;28;20117;-67
2022/04/22 10:10:34;;;;;;;18.00;16.60;;;;;;;;;;5076303;28;20205;-67
2022/04/22 10:13:02;;;;;;;18.60;16.67;;;;;;;;;;5091328;28;20630;-67
2022/04/22 10:15:30;;;;;;;19.85;18.15;;;;;;;;;;5075788;28;20039;-67
2022/04/22 10:17:57;;;;;;;19.55;17.75;;;;;;;;;;5079608;28;20047;-67
2022/04/22 10:20:26;;;;;;;18.10;16.48;;;;;;;;;;5088117;28;20040;-67
2022/04/22 10:22:53;;;;;;;17.92;16.30;;;;;;;;;;5087497;28;20499;-67
2022/04/22 10:25:19;;;;;;;19.00;17.10;;;;;;;;;;5083990;28;20032;-67
2022/04/22 10:27:46;;;;;;;19.33;17.63;;;;;;;;;;5085984;28;20063;-66
2022/04/22 10:30:14;;;;;;;19.35;17.67;;;;;;;;;;5050934;28;20041;-66
2022/04/22 10:32:41;;;;;;;18.00;16.60;;;;;;;;;;5084148;28;20040;-66
2022/04/22 10:35:09;;;;;;;17.95;16.50;;;;;;;;;;5091929;28;20434;-67
2022/04/22 10:37:38;;;;;;;18.10;16.52;;;;;;;;;;5091983;28;20060;-66
2022/04/22 10:40:05;;;;;;;19.25;17.70;;;;;;;;;;5085317;28;20040;-67
2022/04/22 10:42:36;;;;;;;18.95;17.25;;;;;;;;;;5072498;28;20050;-66
2022/04/22 10:47:53;;;;;;;17.38;15.98;;;;;;;;;;5076899;28;20036;-67
2022/04/22 10:50:29;;;;;;;16.98;15.48;;;;;;;;;;5081194;28;20051;-67
2022/04/22 10:53:01;;;;;;;17.67;16.27;;;;;;;;;;5089077;28;20501;-66
2022/04/22 10:55:39;;;;;;;17.15;15.75;;;;;;;;;;5082313;28;20515;-66
2022/04/22 10:58:14;;;;;;;17.13;15.70;;;;;;;;;;5081308;28;20109;-66
2022/04/22 11:00:51;;;;;;;18.15;16.63;;;;;;;;;;5069500;28;20032;-67
2022/04/22 11:03:21;;;;;;;17.52;16.13;;;;;;;;;;5069904;28;20090;-66
2022/04/22 11:05:50;;;;;;;17.65;16.25;;;;;;;;;;5088502;28;20099;-67
2022/04/22 11:08:25;;;;;;;16.52;15.23;;;;;;;;;;5071962;28;20059;-66
2022/04/22 11:10:53;;;;;;;16.20;14.90;;;;;;;;;;5081641;28;20028;-67
2022/04/22 11:13:38;;;;;;;17.35;15.65;;;;;;;;;;5088022;28;20124;-66
2022/04/22 11:16:12;;;;;;;16.60;15.20;;;;;;;;;;5078405;28;20156;-67
2022/04/22 11:18:39;;;;;;;17.95;16.10;;;;;;;;;;5074098;28;20123;-67
2022/04/22 11:21:33;;;;;;;17.52;16.02;;;;;;;;;;5078782;28;20502;-66
2022/04/22 11:23:58;;;;;;;18.05;16.52;;;;;;;;;;5082249;28;20055;-67
2022/04/22 11:26:25;;;;;;;17.73;16.17;;;;;;;;;;5089624;28;20072;-67
2022/04/22 11:28:50;;;;;;;17.98;16.42;;;;;;;;;;5080797;28;20023;-66
2022/04/22 11:31:18;;;;;;;19.02;17.42;;;;;;;;;;5082163;28;20051;-67
2022/04/22 11:33:55;;;;;;;17.35;15.85;;;;;;;;;;5075453;28;20036;-66
2022/04/22 11:36:25;;;;;;;16.63;15.32;;;;;;;;;;5082874;28;20093;-66
2022/04/22 11:38:53;;;;;;;17.50;15.88;;;;;;;;;;5086645;28;20036;-67
2022/04/22 11:41:19;;;;;;;17.23;15.70;;;;;;;;;;5085806;28;20043;-67
2022/04/22 11:43:49;;;;;;;16.92;15.52;;;;;;;;;;5083717;28;20292;-67
2022/04/22 11:46:17;;;;;;;17.77;16.40;;;;;;;;;;5088874;28;20028;-67
2022/04/22 11:48:53;;;;;;;16.02;14.73;;;;;;;;;;5087625;28;20161;-67
2022/04/22 11:51:19;;;;;;;17.63;16.23;;;;;;;;;;5087334;28;20111;-66
2022/04/22 11:53:49;;;;;;;16.02;14.82;;;;;;;;;;5083381;28;20119;-67
2022/04/22 11:56:17;;;;;;;16.55;15.25;;;;;;;;;;5085432;28;20022;-66
2022/04/22 11:58:43;;;;;;;16.25;15.05;;;;;;;;;;5065805;28;20575;-66
2022/04/22 12:06:42;;;;;;;18.17;16.30;;;;;;;;;;5076288;28;20435;-67
2022/04/22 12:09:08;;;;;;;17.50;16.10;;;;;;;;;;5074138;28;20094;-66
2022/04/22 12:11:42;;;;;;;17.67;16.05;;;;;;;;;;5074175;28;20040;-66
2022/04/22 12:14:10;;;;;;;16.75;15.27;;;;;;;;;;5067086;28;20040;-66
2022/04/22 12:16:38;;;;;;;16.38;14.98;;;;;;;;;;5070315;28;20111;-66
2022/04/22 12:19:06;;;;;;;15.23;14.10;;;;;;;;;;5081573;28;20043;-66
2022/04/22 12:21:35;;;;;;;15.75;14.60;;;;;;;;;;5073825;28;20040;-66
2022/04/22 12:24:04;;;;;;;16.80;15.40;;;;;;;;;;5084292;28;20067;-67
2022/04/22 12:26:32;;;;;;;;;;;;;;;;;;5083128;28;20039;-66
2022/04/22 12:29:12;;;;;;;15.55;14.45;;;;;;;;;;5074541;28;19916;-66
2022/04/22 12:31:40;;;;;;;16.15;14.88;;;;;;;;;;5075913;28;20096;-66
2022/04/22 12:34:08;;;;;;;16.83;15.32;;;;;;;;;;5085862;28;20028;-66
2022/04/22 12:36:39;;;;;;;16.92;15.52;;;;;;;;;;5084273;28;20758;-66
2022/04/22 12:39:05;;;;;;;16.77;15.48;;;;;;;;;;5072762;28;20047;-67
2022/04/22 12:41:43;;;;;;;15.85;14.63;;;;;;;;;;5080730;28;20028;-66
2022/04/22 12:44:13;;;;;;;17.17;15.73;;;;;;;;;;5080449;28;20122;-66
2022/04/22 12:52:28;;;;;;;17.48;15.80;;;;;;;;;;5082296;28;20062;-65
2022/04/22 12:55:02;;;;;;;16.23;14.88;;;;;;;;;;5081663;28;20063;-67
2022/04/22 12:57:28;;;;;;;14.73;13.68;;;;;;;;;;5083662;28;20028;-67
2022/04/22 12:59:56;;;;;;;16.60;15.30;;;;;;;;;;5082039;28;20509;-66
2022/04/22 13:02:29;;;;;;;16.92;15.73;;;;;;;;;;5089390;28;20111;-66
2022/04/22 13:04:59;;;;;;;16.42;15.18;;;;;;;;;;5082165;28;20042;-66
2022/04/22 13:07:36;;;;;;;16.90;15.52;;;;;;;;;;5083607;28;20545;-66
2022/04/22 13:10:04;;;;;;;16.38;15.18;;;;;;;;;;5081792;28;20519;-66
2022/04/22 13:12:29;;;;;;;16.35;14.85;;;;;;;;;;5074585;28;20036;-66
2022/04/22 13:14:55;;;;;;;15.65;14.40;;;;;;;;;;5079367;28;20038;-66
2022/04/22 13:17:24;;;;;;;15.70;14.40;;;;;;;;;;5072937;28;20025;-67
2022/04/22 13:19:49;;;;;;;;;;;;;;;;;;5072360;28;20054;-66
2022/04/22 13:22:15;;;;;;;16.70;15.02;;;;;;;;;;5081172;28;20407;-67
2022/04/22 13:24:44;;;;;;;15.57;14.23;;;;;;;;;;5083807;28;20036;-67
2022/04/22 13:27:11;;;;;;;15.25;14.05;;;;;;;;;;5068258;28;20094;-67
2022/04/22 13:29:37;;;;;;;15.40;14.20;;;;;;;;;;5082168;28;20036;-67
2022/04/22 13:32:03;;;;;;;15.13;14.02;;;;;;;;;;5072468;28;20165;-67
2022/04/22 13:34:28;;;;;;;15.50;14.40;;;;;;;;;;5067044;28;20446;-66
2022/04/22 13:36:54;;;;;;;14.75;13.75;;;;;;;;;;5078251;28;20039;-66
2022/04/22 13:39:20;;;;;;;14.68;13.68;;;;;;;;;;5080525;28;20032;-67
2022/04/22 13:41:45;;;;;;;15.68;14.48;;;;;;;;;;5067366;28;20042;-67
2022/04/22 13:44:11;;;;;;;15.70;14.43;;;;;;;;;;5066930;28;20032;-66
2022/04/22 13:52:25;;;;;;;16.65;15.43;;;;;;;;;;5077957;28;20257;-67
2022/04/22 13:54:53;;;;;;;16.65;15.07;;;;;;;;;;5076419;28;20040;-67
2022/04/22 13:57:19;;;;;;;16.70;15.50;;;;;;;;;;5082542;28;20024;-67
2022/04/22 13:59:44;;;;;;;16.80;15.43;;;;;;;;;;5067067;28;20361;-67
2022/04/22 14:02:10;;;;;;;15.73;14.48;;;;;;;;;;5069764;28;20070;-66
2022/04/22 14:04:37;;;;;;;15.75;14.35;;;;;;;;;;5080553;28;20035;-66
2022/04/22 14:07:06;;;;;;;15.75;14.65;;;;;;;;;;5072988;28;20066;-67
2022/04/22 14:09:33;;;;;;;15.38;13.93;;;;;;;;;;5070669;28;20024;-67
2022/04/22 14:11:58;;;;;;;15.10;13.93;;;;;;;;;;5091071;28;20044;-66
2022/04/22 14:14:25;;;;;;;16.25;14.80;;;;;;;;;;5082211;28;20048;-66
2022/04/22 14:16:51;;;;;;;14.73;13.65;;;;;;;;;;5071313;28;20066;-67
2022/04/22 14:19:18;;;;;;;16.85;15.60;;;;;;;;;;5077687;28;20028;-66
2022/04/22 14:21:43;;;;;;;18.00;16.48;;;;;;;;;;5085303;28;20783;-66
2022/04/22 14:24:09;;;;;;;16.92;15.52;;;;;;;;;;5088950;28;20039;-67
2022/04/22 14:26:35;;;;;;;15.80;14.60;;;;;;;;;;5076551;28;20044;-65
2022/04/22 14:29:02;;;;;;;15.93;14.55;;;;;;;;;;5085130;28;20617;-67
2022/04/22 14:31:28;;;;;;;16.35;15.07;;;;;;;;;;5075558;28;20395;-66
2022/04/22 14:33:54;;;;;;;15.35;14.18;;;;;;;;;;5070498;28;20064;-66
2022/04/22 14:36:20;;;;;;;18.75;14.98;;;;;;;;;;5080359;28;20485;-66
2022/04/22 14:38:47;;;;;;;15.88;14.65;;;;;;;;;;5083683;28;20036;-66
2022/04/22 14:41:15;;;;;;;16.75;15.55;;;;;;;;;;5074512;28;20445;-66
2022/04/22 14:43:41;;;;;;;16.63;15.20;;;;;;;;;;5072602;28;20123;-66
2022/04/22 14:46:07;;;;;;;17.05;15.60;;;;;;;;;;5087408;28;20128;-65
2022/04/22 14:48:33;;;;;;;16.45;15.10;;;;;;;;;;5078799;28;20161;-65
2022/04/22 14:50:59;;;;;;;15.70;14.55;;;;;;;;;;5071953;28;20040;-66
2022/04/22 14:53:25;;;;;;;16.30;14.68;;;;;;;;;;5084417;28;20040;-65
2022/04/22 14:55:51;;;;;;;15.68;14.52;;;;;;;;;;5081924;28;20032;-66
2022/04/22 14:58:17;;;;;;;14.77;13.68;;;;;;;;;;5071836;28;20036;-65
2022/04/22 15:00:43;;;;;;;15.70;14.48;;;;;;;;;;5071230;28;20338;-65
2022/04/22 15:03:09;;;;;;;15.98;14.77;;;;;;;;;;5079057;28;20028;-66
2022/04/22 15:05:34;;;;;;;15.45;14.02;;;;;;;;;;5079276;28;20033;-66
2022/04/22 15:08:00;;;;;;;15.10;13.90;;;;;;;;;;5071215;28;20036;-66
2022/04/22 15:10:26;;;;;;;15.25;13.95;;;;;;;;;;5076399;28;20376;-67
2022/04/22 15:12:52;;;;;;;15.35;14.05;;;;;;;;;;5083862;28;20032;-66
2022/04/22 15:15:18;;;;;;;15.57;14.38;;;;;;;;;;5082078;28;20400;-67
2022/04/22 15:25:56;;;;;;;16.73;15.43;;;;;;;;;;5085214;28;20043;-66
2022/04/22 15:28:23;;;;;;;16.52;15.32;;;;;;;;;;5076933;28;20046;-66
2022/04/22 15:31:14;;;;;;;16.73;15.43;;;;;;;;;;5083748;28;20071;-66
2022/04/22 15:33:42;;;;;;;17.85;16.45;;;;;;;;;;5086583;28;20063;-67
2022/04/22 15:36:10;;;;;;;16.42;15.13;;;;;;;;;;5072218;28;20068;-66
2022/04/22 15:38:37;;;;;;;16.33;15.13;;;;;;;;;;5073148;28;20043;-67
2022/04/22 15:41:06;;;;;;;16.00;14.70;;;;;;;;;;5079591;28;20152;-67
2022/04/22 15:43:38;;;;;;;16.02;14.35;;;;;;;;;;5083683;28;20039;-66
2022/04/22 15:46:04;;;;;;;16.58;15.27;;;;;;;;;;5085153;28;20035;-66